Dawpool — V7XK6 — position and weather

sailwx.info

Track history (hours):
 
Tides and Currents Weather Stations Pressure Air Temp Water Temp Dewpoint Dewpoint Depression Visibility Wind Speed Wind Dir Waves Ship Positions

Dawpool

Last reported at 2017-Nov-18 08:50 UTC. Time now 2017-Nov-22 22:05 UTC.
Position N 40°41' E 029°20'.

Length 120 m; draft 6.8 m.

Type: Cargo ship. MMSI: 538004502.

Date/timePositionNaut miles runAvg speedWind from/ knotsBaromVisibWave heightAir tempDewpointWater temp
2017-Nov-18 08:50N 40°41' E 029°20'0 0.0
2017-Nov-18 07:50N 40°41' E 029°20'0 0.0
2017-Nov-18 07:26N 40°41' E 029°20'0 0.0
2017-Nov-18 05:56N 40°41' E 029°20'0 0.0
2017-Nov-18 05:26N 40°41' E 029°20'0 0.0
2017-Nov-18 04:56N 40°41' E 029°20'0 0.0
2017-Nov-18 04:20N 40°41' E 029°20'0 0.0
2017-Nov-18 03:14N 40°41' E 029°20'0 0.0
2017-Nov-18 02:56N 40°41' E 029°20'0 0.0
2017-Nov-18 01:08N 40°41' E 029°20'0 0.0
2017-Nov-18 00:20N 40°41' E 029°20'0 0.0
2017-Nov-17 23:50N 40°41' E 029°20'0 0.0
2017-Nov-17 23:20N 40°41' E 029°20'0 0.1
2017-Nov-17 22:50N 40°41' E 029°20'0 0.1
2017-Nov-17 22:26N 40°41' E 029°20'0 0.2
2017-Nov-17 22:01N 40°41' E 029°20'2 4.6
2017-Nov-17 21:30N 40°43' E 029°21'5 9.3
2017-Nov-17 20:58N 40°45' E 029°27'4 0.1
2017-Nov-15 21:33N 40°43' E 029°22'0 6.9
2017-Nov-15 21:30N 40°43' E 029°22'4 7.3
2017-Nov-15 21:00N 40°44' E 029°17'4 8.8
2017-Nov-15 20:30N 40°45' E 029°11'  
2017-Nov-11 17:27N 36°28' E 014°51'4 8.2
2017-Nov-11 17:00N 36°28' E 014°46'5 8.2
2017-Nov-11 16:25N 36°28' E 014°40'3 7.8
2017-Nov-11 16:00N 36°28' E 014°36'4 7.9
2017-Nov-11 15:29N 36°29' E 014°31'4 8.1
2017-Nov-11 15:00N 36°29' E 014°26'4 8.3
2017-Nov-11 14:30N 36°29' E 014°21'4 8.6
2017-Nov-11 14:00N 36°30' E 014°16'5 8.7
2017-Nov-11 13:28N 36°30' E 014°10'4 8.8
2017-Nov-11 12:58N 36°31' E 014°05'  
Track history (hours):
 
Tides and Currents Weather Stations Pressure Air Temp Water Temp Dewpoint Dewpoint Depression Visibility Wind Speed Wind Dir Waves Ship Positions

Dawpool

Last reported at 2017-Nov-18 08:50 UTC. Time now 2017-Nov-22 22:05 UTC.
Position N 40°41' E 029°20'.

Length 120 m; draft 6.8 m.

Type: Cargo ship. MMSI: 538004502.

Date/timePositionNaut miles runAvg speedWind from/ knotsBaromVisibWave heightAir tempDewpointWater temp
2017-Nov-18 08:50N 40°41' E 029°20'0 0.0
2017-Nov-18 07:50N 40°41' E 029°20'0 0.0
2017-Nov-18 07:26N 40°41' E 029°20'0 0.0
2017-Nov-18 05:56N 40°41' E 029°20'0 0.0
2017-Nov-18 05:26N 40°41' E 029°20'0 0.0
2017-Nov-18 04:56N 40°41' E 029°20'0 0.0
2017-Nov-18 04:20N 40°41' E 029°20'0 0.0
2017-Nov-18 03:14N 40°41' E 029°20'0 0.0
2017-Nov-18 02:56N 40°41' E 029°20'0 0.0
2017-Nov-18 01:08N 40°41' E 029°20'0 0.0
2017-Nov-18 00:20N 40°41' E 029°20'0 0.0
2017-Nov-17 23:50N 40°41' E 029°20'0 0.0
2017-Nov-17 23:20N 40°41' E 029°20'0 0.1
2017-Nov-17 22:50N 40°41' E 029°20'0 0.1
2017-Nov-17 22:26N 40°41' E 029°20'0 0.2
2017-Nov-17 22:01N 40°41' E 029°20'2 4.6
2017-Nov-17 21:30N 40°43' E 029°21'5 9.3
2017-Nov-17 20:58N 40°45' E 029°27'4 0.1
2017-Nov-15 21:33N 40°43' E 029°22'0 6.9
2017-Nov-15 21:30N 40°43' E 029°22'4 7.3
2017-Nov-15 21:00N 40°44' E 029°17'4 8.8
2017-Nov-15 20:30N 40°45' E 029°11'  
2017-Nov-11 17:27N 36°28' E 014°51'4 8.2
2017-Nov-11 17:00N 36°28' E 014°46'5 8.2
2017-Nov-11 16:25N 36°28' E 014°40'3 7.8
2017-Nov-11 16:00N 36°28' E 014°36'4 7.9
2017-Nov-11 15:29N 36°29' E 014°31'4 8.1
2017-Nov-11 15:00N 36°29' E 014°26'4 8.3
2017-Nov-11 14:30N 36°29' E 014°21'4 8.6
2017-Nov-11 14:00N 36°30' E 014°16'5 8.7
2017-Nov-11 13:28N 36°30' E 014°10'4 8.8
2017-Nov-11 12:58N 36°31' E 014°05'  

Dump ship's entire track history